createdAt,value
2018-10-16T00:00:42.875Z,1003.35
2018-10-16T00:01:42.888Z,1003.34
2018-10-16T00:02:42.852Z,1003.38
2018-10-16T00:03:42.843Z,1003.38
2018-10-16T00:04:42.831Z,1003.42
2018-10-16T00:05:42.821Z,1003.43
2018-10-16T00:06:42.823Z,1003.42
2018-10-16T00:07:42.813Z,1003.46
2018-10-16T00:08:42.787Z,1003.45
2018-10-16T00:09:42.782Z,1003.46
2018-10-16T00:10:42.767Z,1003.49
2018-10-16T00:11:42.756Z,1003.44
2018-10-16T00:12:42.772Z,1003.47
2018-10-16T00:13:42.736Z,1003.46
2018-10-16T00:14:42.728Z,1003.43
2018-10-16T00:15:42.712Z,1003.42
2018-10-16T00:16:42.704Z,1003.43
2018-10-16T00:17:42.692Z,1003.43
2018-10-16T00:18:42.692Z,1003.42
2018-10-16T00:19:42.669Z,1003.45
2018-10-16T00:20:42.659Z,1003.45
2018-10-16T00:21:42.648Z,1003.53
2018-10-16T00:22:42.641Z,1003.52
2018-10-16T00:23:42.653Z,1003.47
2018-10-16T00:24:42.617Z,1003.43
2018-10-16T00:25:42.652Z,1003.45
2018-10-16T00:26:42.595Z,1003.43
2018-10-16T00:27:42.583Z,1003.43
2018-10-16T00:28:42.572Z,1003.45
2018-10-16T00:29:42.590Z,1003.44
2018-10-16T00:30:42.556Z,1003.45
2018-10-16T00:31:42.541Z,1003.45
2018-10-16T00:32:42.575Z,1003.44
2018-10-16T00:33:42.519Z,1003.47
2018-10-16T00:34:42.508Z,1003.47
2018-10-16T00:35:42.534Z,1003.46
2018-10-16T00:36:42.486Z,1003.47
2018-10-16T00:37:42.475Z,1003.45
2018-10-16T00:38:42.465Z,1003.49
2018-10-16T00:39:42.453Z,1003.48
2018-10-16T00:40:42.443Z,1003.44
2018-10-16T00:41:42.446Z,1003.43
2018-10-16T00:42:42.423Z,1003.47
2018-10-16T00:43:42.411Z,1003.49
2018-10-16T00:44:42.400Z,1003.49
2018-10-16T00:45:42.419Z,1003.49
2018-10-16T00:46:42.378Z,1003.49
2018-10-16T00:47:42.367Z,1003.47
2018-10-16T00:48:42.357Z,1003.52
2018-10-16T00:49:42.346Z,1003.53
2018-10-16T00:50:42.337Z,1003.51
2018-10-16T00:51:42.352Z,1003.53
2018-10-16T00:52:42.313Z,1003.52
2018-10-16T00:53:42.309Z,1003.55
2018-10-16T00:54:42.301Z,1003.55
2018-10-16T00:55:42.282Z,1003.58
2018-10-16T00:56:42.270Z,1003.54
2018-10-16T00:57:42.269Z,1003.56
2018-10-16T00:58:42.248Z,1003.58
2018-10-16T00:59:42.237Z,1003.56
2018-10-16T01:00:42.228Z,1003.59
2018-10-16T01:01:42.218Z,1003.63
2018-10-16T01:02:42.221Z,1003.58
2018-10-16T01:03:42.193Z,1003.60
2018-10-16T01:04:42.183Z,1003.60
2018-10-16T01:05:42.172Z,1003.65
2018-10-16T01:06:42.162Z,1003.65
2018-10-16T01:07:42.163Z,1003.68
2018-10-16T01:08:42.139Z,1003.71
2018-10-16T01:09:42.143Z,1003.68
2018-10-16T01:10:42.118Z,1003.70
2018-10-16T01:11:42.109Z,1003.67
2018-10-16T01:12:42.110Z,1003.68
2018-10-16T01:13:42.085Z,1003.72
2018-10-16T01:14:42.074Z,1003.73
2018-10-16T01:15:42.064Z,1003.74
2018-10-16T01:16:42.053Z,1003.77
2018-10-16T01:17:42.057Z,1003.77
2018-10-16T01:18:42.031Z,1003.78
2018-10-16T01:19:42.020Z,1003.77
2018-10-16T01:20:42.024Z,1003.83
2018-10-16T01:21:41.998Z,1003.84
2018-10-16T01:22:42.006Z,1003.82
2018-10-16T01:23:41.976Z,1003.87
2018-10-16T01:24:42.016Z,1003.87
2018-10-16T01:25:41.956Z,1003.86
2018-10-16T01:26:41.971Z,1003.87
2018-10-16T01:27:41.933Z,1003.84
2018-10-16T01:28:41.940Z,1003.85
2018-10-16T01:29:41.920Z,1003.85
2018-10-16T01:30:41.913Z,1003.85
2018-10-16T01:31:41.889Z,1003.90
2018-10-16T01:32:41.880Z,1003.89
2018-10-16T01:33:41.867Z,1003.90
2018-10-16T01:34:41.858Z,1003.91
2018-10-16T01:35:41.863Z,1003.87
2018-10-16T01:36:41.836Z,1003.91
2018-10-16T01:37:41.824Z,1003.84
2018-10-16T01:38:41.813Z,1003.88
2018-10-16T01:39:41.803Z,1003.85
2018-10-16T01:40:41.807Z,1003.90
2018-10-16T01:41:41.794Z,1003.91
2018-10-16T01:42:41.773Z,1003.88
2018-10-16T01:43:41.763Z,1003.87
2018-10-16T01:44:41.748Z,1003.86
2018-10-16T01:45:41.737Z,1003.88
2018-10-16T01:46:41.757Z,1003.90
2018-10-16T01:47:41.716Z,1003.91
2018-10-16T01:48:41.704Z,1003.92
2018-10-16T01:49:41.693Z,1003.94
2018-10-16T01:50:41.683Z,1003.90
2018-10-16T01:51:41.672Z,1003.88
2018-10-16T01:52:41.699Z,1003.94
2018-10-16T01:53:41.650Z,1003.85
2018-10-16T01:54:41.639Z,1003.86
2018-10-16T01:55:41.629Z,1003.88
2018-10-16T01:56:41.621Z,1003.84
2018-10-16T01:57:41.607Z,1003.85
2018-10-16T01:58:41.636Z,1003.86
2018-10-16T01:59:41.584Z,1003.84
2018-10-16T02:00:41.575Z,1003.84
2018-10-16T02:01:41.564Z,1003.87
2018-10-16T02:02:41.558Z,1003.85
2018-10-16T02:03:41.586Z,1003.88
2018-10-16T02:04:41.544Z,1003.86
2018-10-16T02:05:41.519Z,1003.87
2018-10-16T02:06:41.509Z,1003.86
2018-10-16T02:07:41.500Z,1003.89
2018-10-16T02:08:41.518Z,1003.93
2018-10-16T02:09:41.482Z,1003.94
2018-10-16T02:10:41.465Z,1003.94
2018-10-16T02:11:41.453Z,1003.87
2018-10-16T02:12:41.444Z,1003.95
2018-10-16T02:13:41.433Z,1003.96
2018-10-16T02:14:41.518Z,1003.97
2018-10-16T02:15:41.411Z,1003.99
2018-10-16T02:16:41.399Z,1004.03
2018-10-16T02:17:41.390Z,1004.05
2018-10-16T02:18:41.379Z,1004.02
2018-10-16T02:19:41.382Z,1004.04
2018-10-16T02:20:41.357Z,1004.09
2018-10-16T02:21:41.346Z,1004.07
2018-10-16T02:22:41.334Z,1004.05
2018-10-16T02:23:41.328Z,1004.04
2018-10-16T02:24:41.343Z,1004.00
2018-10-16T02:25:41.303Z,1004.02
2018-10-16T02:26:41.296Z,1004.05
2018-10-16T02:27:41.280Z,1004.05
2018-10-16T02:28:41.270Z,1004.03
2018-10-16T02:29:41.257Z,1004.04
2018-10-16T02:30:41.264Z,1004.07
2018-10-16T02:31:41.234Z,1004.06
2018-10-16T02:32:41.239Z,1004.05
2018-10-16T02:33:41.215Z,1004.06
2018-10-16T02:34:41.209Z,1004.07
2018-10-16T02:35:41.208Z,1004.07
2018-10-16T02:36:41.200Z,1004.05
2018-10-16T02:37:41.175Z,1004.07
2018-10-16T02:38:41.164Z,1004.08
2018-10-16T02:39:41.149Z,1004.07
2018-10-16T02:40:41.180Z,1004.08
2018-10-16T02:41:41.135Z,1004.11
2018-10-16T02:42:41.120Z,1004.08
2018-10-16T02:43:41.105Z,1004.13
2018-10-16T02:44:41.094Z,1004.10
2018-10-16T02:45:41.084Z,1004.13
2018-10-16T02:46:41.103Z,1004.10
2018-10-16T02:47:41.063Z,1004.10
2018-10-16T02:48:41.055Z,1004.15
2018-10-16T02:49:41.046Z,1004.15
2018-10-16T02:50:41.033Z,1004.15
2018-10-16T02:51:41.018Z,1004.11
2018-10-16T02:52:41.039Z,1004.08
2018-10-16T02:53:40.995Z,1004.12
2018-10-16T02:54:40.985Z,1004.12
2018-10-16T02:55:40.975Z,1004.12
2018-10-16T02:56:40.962Z,1004.10
2018-10-16T02:57:40.956Z,1004.08
2018-10-16T02:58:40.977Z,1004.09
2018-10-16T02:59:40.930Z,1004.09
2018-10-16T03:00:40.924Z,1004.07
2018-10-16T03:01:40.910Z,1004.13
2018-10-16T03:02:40.897Z,1004.13
2018-10-16T03:03:40.887Z,1004.15
2018-10-16T03:04:40.900Z,1004.14
2018-10-16T03:05:40.864Z,1004.19
2018-10-16T03:06:40.852Z,1004.18
2018-10-16T03:07:40.851Z,1004.18
2018-10-16T03:08:40.830Z,1004.21
2018-10-16T03:09:40.821Z,1004.21
2018-10-16T03:10:40.808Z,1004.24
2018-10-16T03:11:40.799Z,1004.22
2018-10-16T03:12:40.797Z,1004.22
2018-10-16T03:13:40.775Z,1004.25
2018-10-16T03:14:40.776Z,1004.24
2018-10-16T03:15:40.754Z,1004.20
2018-10-16T03:16:40.744Z,1004.24
2018-10-16T03:17:40.733Z,1004.24
2018-10-16T03:18:40.749Z,1004.25
2018-10-16T03:19:40.709Z,1004.21
2018-10-16T03:20:40.763Z,1004.21
2018-10-16T03:21:40.693Z,1004.19
2018-10-16T03:22:40.676Z,1004.25
2018-10-16T03:23:40.665Z,1004.25
2018-10-16T03:24:40.667Z,1004.25
2018-10-16T03:25:40.689Z,1004.25
2018-10-16T03:26:40.634Z,1004.31
2018-10-16T03:27:40.622Z,1004.31
2018-10-16T03:28:40.612Z,1004.33
2018-10-16T03:29:40.600Z,1004.35
2018-10-16T03:30:40.600Z,1004.37
2018-10-16T03:31:40.593Z,1004.37
2018-10-16T03:32:40.582Z,1004.34
2018-10-16T03:33:40.557Z,1004.38
2018-10-16T03:34:40.545Z,1004.38
2018-10-16T03:35:40.534Z,1004.38
2018-10-16T03:36:40.555Z,1004.36
2018-10-16T03:37:40.513Z,1004.36
2018-10-16T03:38:40.501Z,1004.35
2018-10-16T03:39:40.491Z,1004.38
2018-10-16T03:40:40.478Z,1004.41
2018-10-16T03:41:40.467Z,1004.38
2018-10-16T03:42:40.467Z,1004.36
2018-10-16T03:43:40.447Z,1004.40
2018-10-16T03:44:40.445Z,1004.43
2018-10-16T03:45:40.424Z,1004.41
2018-10-16T03:46:40.414Z,1004.40
2018-10-16T03:47:40.464Z,1004.46
2018-10-16T03:48:40.401Z,1004.46
2018-10-16T03:49:40.381Z,1004.47
2018-10-16T03:50:40.369Z,1004.47
2018-10-16T03:51:40.359Z,1004.46
2018-10-16T03:52:40.362Z,1004.47
2018-10-16T03:53:40.336Z,1004.46
2018-10-16T03:54:40.339Z,1004.43
2018-10-16T03:55:40.315Z,1004.49
2018-10-16T03:56:40.303Z,1004.50
2018-10-16T03:57:40.294Z,1004.52
2018-10-16T03:58:40.309Z,1004.56
2018-10-16T03:59:40.270Z,1004.54
2018-10-16T04:00:40.261Z,1004.54
2018-10-16T04:01:40.248Z,1004.55
2018-10-16T04:02:40.237Z,1004.54
2018-10-16T04:03:40.229Z,1004.50
2018-10-16T04:04:40.229Z,1004.52
2018-10-16T04:05:40.207Z,1004.54
2018-10-16T04:06:40.252Z,1004.58
2018-10-16T04:07:40.184Z,1004.58
2018-10-16T04:08:40.172Z,1004.55
2018-10-16T04:09:40.172Z,1004.58
2018-10-16T04:10:40.154Z,1004.58
2018-10-16T04:11:40.139Z,1004.57
2018-10-16T04:12:40.130Z,1004.65
2018-10-16T04:13:40.128Z,1004.64
2018-10-16T04:14:40.107Z,1004.64
2018-10-16T04:15:40.096Z,1004.65
2018-10-16T04:16:40.085Z,1004.63
2018-10-16T04:17:40.075Z,1004.61
2018-10-16T04:18:40.078Z,1004.60
2018-10-16T04:19:40.055Z,1004.57
2018-10-16T04:20:40.041Z,1004.60
2018-10-16T04:21:40.031Z,1004.58
2018-10-16T04:22:40.042Z,1004.56
2018-10-16T04:23:40.009Z,1004.52
2018-10-16T04:24:40.006Z,1004.58
2018-10-16T04:25:39.986Z,1004.55
2018-10-16T04:26:39.974Z,1004.53
2018-10-16T04:27:39.966Z,1004.49
2018-10-16T04:28:39.964Z,1004.51
2018-10-16T04:29:39.941Z,1004.49
2018-10-16T04:30:39.957Z,1004.48
2018-10-16T04:31:39.921Z,1004.43
2018-10-16T04:32:39.911Z,1004.48
2018-10-16T04:33:39.899Z,1004.45
2018-10-16T04:34:39.892Z,1004.42
2018-10-16T04:35:39.876Z,1004.43
2018-10-16T04:36:39.905Z,1004.46
2018-10-16T04:37:39.854Z,1004.43
2018-10-16T04:38:39.844Z,1004.44
2018-10-16T04:39:39.833Z,1004.44
2018-10-16T04:40:39.823Z,1004.42
2018-10-16T04:41:39.936Z,1004.40
2018-10-16T04:42:39.813Z,1004.44
2018-10-16T04:43:39.796Z,1004.44
2018-10-16T04:44:39.780Z,1004.49
2018-10-16T04:45:39.768Z,1004.49
2018-10-16T04:46:39.771Z,1004.53
2018-10-16T04:47:39.770Z,1004.58
2018-10-16T04:48:39.736Z,1004.53
2018-10-16T04:49:39.725Z,1004.54
2018-10-16T04:50:39.713Z,1004.54
2018-10-16T04:51:39.717Z,1004.54
2018-10-16T04:52:39.854Z,1004.55
2018-10-16T04:53:39.680Z,1004.58
2018-10-16T04:54:39.670Z,1004.53
2018-10-16T04:55:39.657Z,1004.58
2018-10-16T04:56:39.646Z,1004.56
2018-10-16T04:57:39.635Z,1004.60
2018-10-16T04:58:39.659Z,1004.57
2018-10-16T04:59:39.613Z,1004.55
2018-10-16T05:00:39.603Z,1004.56
2018-10-16T05:01:39.592Z,1004.60
2018-10-16T05:02:39.581Z,1004.62
2018-10-16T05:03:39.570Z,1004.59
2018-10-16T05:04:39.578Z,1004.63
2018-10-16T05:05:39.551Z,1004.56
2018-10-16T05:06:39.540Z,1004.59
2018-10-16T05:07:39.530Z,1004.62
2018-10-16T05:08:39.518Z,1004.60
2018-10-16T05:09:39.520Z,1004.67
2018-10-16T05:10:39.493Z,1004.66
2018-10-16T05:11:39.482Z,1004.69
2018-10-16T05:12:39.498Z,1004.70
2018-10-16T05:13:39.461Z,1004.74
2018-10-16T05:14:39.450Z,1004.74
2018-10-16T05:15:39.452Z,1004.74
2018-10-16T05:16:39.428Z,1004.71
2018-10-16T05:17:39.415Z,1004.76
2018-10-16T05:18:39.405Z,1004.74
2018-10-16T05:19:39.398Z,1004.73
2018-10-16T05:20:39.411Z,1004.75
2018-10-16T05:21:39.372Z,1004.72
2018-10-16T05:22:39.361Z,1004.77
2018-10-16T05:23:39.350Z,1004.71
2018-10-16T05:24:39.340Z,1004.71
2018-10-16T05:25:39.328Z,1004.76
2018-10-16T05:26:39.353Z,1004.71
2018-10-16T05:27:39.338Z,1004.76
2018-10-16T05:28:39.295Z,1004.80
2018-10-16T05:29:39.285Z,1004.76
2018-10-16T05:30:39.274Z,1004.77
2018-10-16T05:31:39.372Z,1004.82
2018-10-16T05:32:39.252Z,1004.79
2018-10-16T05:33:39.252Z,1004.85
2018-10-16T05:34:39.229Z,1004.84
2018-10-16T05:35:39.219Z,1004.86
2018-10-16T05:36:39.207Z,1004.89
2018-10-16T05:37:39.210Z,1004.92
2018-10-16T05:38:39.186Z,1004.86
2018-10-16T05:39:39.184Z,1004.89
2018-10-16T05:40:39.164Z,1004.91
2018-10-16T05:41:39.153Z,1004.87
2018-10-16T05:42:39.153Z,1004.87
2018-10-16T05:43:39.132Z,1004.92
2018-10-16T05:44:39.125Z,1004.92
2018-10-16T05:45:39.109Z,1004.91
2018-10-16T05:46:39.136Z,1004.91
2018-10-16T05:47:39.089Z,1004.87
2018-10-16T05:48:39.077Z,1004.89
2018-10-16T05:49:39.067Z,1004.92
2018-10-16T05:50:39.056Z,1004.91
2018-10-16T05:51:39.046Z,1004.97
2018-10-16T05:52:39.043Z,1004.97
2018-10-16T05:53:39.025Z,1004.95
2018-10-16T05:54:39.011Z,1004.94
2018-10-16T05:55:39.004Z,1004.95
2018-10-16T05:56:38.996Z,1004.95
2018-10-16T05:57:38.991Z,1004.90
2018-10-16T05:58:38.971Z,1004.95
2018-10-16T05:59:38.968Z,1004.95
2018-10-16T06:00:38.948Z,1004.87
2018-10-16T06:01:38.934Z,1004.93
2018-10-16T06:02:38.923Z,1004.92
2018-10-16T06:03:38.912Z,1004.95
2018-10-16T06:04:38.913Z,1004.95
2018-10-16T06:05:38.959Z,1004.94
2018-10-16T06:06:38.881Z,1004.89
2018-10-16T06:07:38.875Z,1004.90
2018-10-16T06:08:38.869Z,1004.94
2018-10-16T06:09:38.850Z,1004.91
2018-10-16T06:10:38.875Z,1004.97
2018-10-16T06:11:38.827Z,1004.98
2018-10-16T06:12:38.818Z,1004.98
2018-10-16T06:13:38.819Z,1005.05
2018-10-16T06:14:38.796Z,1005.06
2018-10-16T06:15:38.811Z,1005.11
2018-10-16T06:16:38.773Z,1005.07
2018-10-16T06:17:38.761Z,1005.11
2018-10-16T06:18:38.748Z,1005.14
2018-10-16T06:19:38.739Z,1005.13
2018-10-16T06:20:38.729Z,1005.17
2018-10-16T06:21:38.731Z,1005.20
2018-10-16T06:22:38.706Z,1005.20
2018-10-16T06:23:38.695Z,1005.22
2018-10-16T06:24:38.700Z,1005.25
2018-10-16T06:25:38.688Z,1005.27
2018-10-16T06:26:38.663Z,1005.29
2018-10-16T06:27:38.656Z,1005.27
2018-10-16T06:28:38.648Z,1005.29
2018-10-16T06:29:38.674Z,1005.31
2018-10-16T06:30:38.619Z,1005.32
2018-10-16T06:31:38.609Z,1005.34
2018-10-16T06:32:38.598Z,1005.32
2018-10-16T06:33:38.590Z,1005.33
2018-10-16T06:34:38.575Z,1005.39
2018-10-16T06:35:38.580Z,1005.40
2018-10-16T06:36:38.552Z,1005.41
2018-10-16T06:37:38.570Z,1005.36
2018-10-16T06:38:38.531Z,1005.41
2018-10-16T06:39:38.522Z,1005.44
2018-10-16T06:40:38.599Z,1005.38
2018-10-16T06:41:38.556Z,1005.37
2018-10-16T06:42:38.487Z,1005.38
2018-10-16T06:43:38.506Z,1005.39
2018-10-16T06:44:38.467Z,1005.38
2018-10-16T06:45:38.454Z,1005.42
2018-10-16T06:46:38.506Z,1005.40
2018-10-16T06:47:38.544Z,1005.42
2018-10-16T06:48:38.746Z,1005.42
2018-10-16T06:49:38.423Z,1005.50
2018-10-16T06:50:38.403Z,1005.54
2018-10-16T06:51:38.388Z,1005.58
2018-10-16T06:52:38.378Z,1005.52
2018-10-16T06:53:38.367Z,1005.55
2018-10-16T06:54:38.378Z,1005.53
2018-10-16T06:55:38.345Z,1005.57
2018-10-16T06:56:38.335Z,1005.54
2018-10-16T06:57:38.324Z,1005.54
2018-10-16T06:58:38.313Z,1005.55
2018-10-16T06:59:38.342Z,1005.54
2018-10-16T07:00:38.308Z,1005.54
2018-10-16T07:01:38.286Z,1005.53
2018-10-16T07:02:38.283Z,1005.54
2018-10-16T07:03:38.258Z,1005.54
2018-10-16T07:04:38.247Z,1005.52
2018-10-16T07:05:38.250Z,1005.48
2018-10-16T07:06:38.249Z,1005.49
2018-10-16T07:07:38.218Z,1005.55
2018-10-16T07:08:38.204Z,1005.56
2018-10-16T07:09:38.194Z,1005.57
2018-10-16T07:10:38.196Z,1005.58
2018-10-16T07:11:38.171Z,1005.62
2018-10-16T07:12:38.161Z,1005.61
2018-10-16T07:13:38.164Z,1005.56
2018-10-16T07:14:38.139Z,1005.59
2018-10-16T07:15:38.129Z,1005.62
2018-10-16T07:16:38.137Z,1005.68
2018-10-16T07:17:38.107Z,1005.66
2018-10-16T07:18:38.099Z,1005.69
2018-10-16T07:19:38.089Z,1005.70
2018-10-16T07:20:38.076Z,1005.68
2018-10-16T07:21:38.120Z,1005.70
2018-10-16T07:22:38.057Z,1005.69
2018-10-16T07:23:38.119Z,1005.74
2018-10-16T07:24:38.035Z,1005.69
2018-10-16T07:25:38.028Z,1005.70
2018-10-16T07:26:38.015Z,1005.67
2018-10-16T07:27:38.044Z,1005.64
2018-10-16T07:28:37.993Z,1005.68
2018-10-16T07:29:37.982Z,1005.68
2018-10-16T07:30:37.970Z,1005.71
2018-10-16T07:31:37.960Z,1005.75
2018-10-16T07:32:37.948Z,1005.73
2018-10-16T07:33:37.951Z,1005.75
2018-10-16T07:34:37.928Z,1005.80
2018-10-16T07:35:37.915Z,1005.77
2018-10-16T07:36:37.904Z,1005.75
2018-10-16T07:37:37.931Z,1005.80
2018-10-16T07:38:37.917Z,1005.75
2018-10-16T07:39:37.871Z,1005.77
2018-10-16T07:40:37.860Z,1005.77
2018-10-16T07:41:37.848Z,1005.77
2018-10-16T07:42:37.838Z,1005.81
2018-10-16T07:43:37.840Z,1005.84
2018-10-16T07:44:37.814Z,1005.89
2018-10-16T07:45:37.845Z,1005.92
2018-10-16T07:46:37.824Z,1005.92
2018-10-16T07:47:37.781Z,1005.94
2018-10-16T07:48:37.878Z,1005.93
2018-10-16T07:49:37.759Z,1005.89
2018-10-16T07:50:37.747Z,1005.90
2018-10-16T07:51:37.752Z,1005.93
2018-10-16T07:52:37.725Z,1005.92
2018-10-16T07:53:37.744Z,1005.98
2018-10-16T07:54:37.703Z,1005.99
2018-10-16T07:55:37.692Z,1005.98
2018-10-16T07:56:37.681Z,1006.02
2018-10-16T07:57:37.670Z,1005.99
2018-10-16T07:58:37.661Z,1005.98
2018-10-16T07:59:37.662Z,1006.00
2018-10-16T08:00:37.649Z,1005.98
2018-10-16T08:01:37.641Z,1005.98
2018-10-16T08:02:37.617Z,1005.96
2018-10-16T08:03:37.605Z,1005.97
2018-10-16T08:04:37.591Z,1005.94
2018-10-16T08:05:37.616Z,1005.99
2018-10-16T08:06:37.569Z,1006.01
2018-10-16T08:07:37.558Z,1005.99
2018-10-16T08:08:37.547Z,1006.01
2018-10-16T08:09:37.536Z,1006.05
2018-10-16T08:10:37.524Z,1006.02
2018-10-16T08:11:37.530Z,1006.04
2018-10-16T08:12:37.505Z,1006.05
2018-10-16T08:13:37.493Z,1005.98
2018-10-16T08:14:37.483Z,1005.98
2018-10-16T08:15:37.470Z,1006.00
2018-10-16T08:16:37.475Z,1006.05
2018-10-16T08:17:37.453Z,1006.05
2018-10-16T08:18:37.438Z,1006.07
2018-10-16T08:19:37.432Z,1006.06
2018-10-16T08:20:37.431Z,1006.03
2018-10-16T08:21:37.406Z,1006.04
2018-10-16T08:22:37.409Z,1005.98
2018-10-16T08:23:37.385Z,1005.94
2018-10-16T08:24:37.374Z,1005.94
2018-10-16T08:25:37.378Z,1006.00
2018-10-16T08:26:37.382Z,1006.02
2018-10-16T08:27:37.340Z,1005.97
2018-10-16T08:28:37.330Z,1005.96
2018-10-16T08:29:37.320Z,1005.96
2018-10-16T08:30:37.464Z,1005.95
2018-10-16T08:31:37.302Z,1005.98
2018-10-16T08:32:37.324Z,1005.98
2018-10-16T08:33:37.275Z,1005.96
2018-10-16T08:34:37.265Z,1005.95
2018-10-16T08:35:37.254Z,1005.96
2018-10-16T08:36:37.427Z,1005.98
2018-10-16T08:37:37.234Z,1005.97
2018-10-16T08:38:37.248Z,1005.95
2018-10-16T08:39:37.247Z,1005.99
2018-10-16T08:40:37.201Z,1005.97
2018-10-16T08:41:37.221Z,1005.99
2018-10-16T08:42:37.179Z,1005.99
2018-10-16T08:43:37.168Z,1005.95
2018-10-16T08:44:37.185Z,1006.01
2018-10-16T08:45:37.147Z,1006.04
2018-10-16T08:46:37.137Z,1006.03
2018-10-16T08:47:37.202Z,1006.03
2018-10-16T08:48:37.114Z,1006.06
2018-10-16T08:49:37.105Z,1006.05
2018-10-16T08:50:37.110Z,1006.05
2018-10-16T08:51:37.082Z,1006.06
2018-10-16T08:52:37.071Z,1006.06
2018-10-16T08:53:37.060Z,1006.10
2018-10-16T08:54:37.061Z,1006.12
2018-10-16T08:55:37.038Z,1006.12
2018-10-16T08:56:37.028Z,1006.10
2018-10-16T08:57:37.030Z,1006.19
2018-10-16T08:58:37.006Z,1006.16
2018-10-16T08:59:36.995Z,1006.12
2018-10-16T09:00:37.003Z,1006.21
2018-10-16T09:01:36.974Z,1006.23
2018-10-16T09:02:36.976Z,1006.27
2018-10-16T09:03:36.952Z,1006.24
2018-10-16T09:04:36.939Z,1006.21
2018-10-16T09:05:36.930Z,1006.21
2018-10-16T09:06:36.967Z,1006.22
2018-10-16T09:07:36.926Z,1006.24
2018-10-16T09:08:36.899Z,1006.27
2018-10-16T09:09:36.889Z,1006.22
2018-10-16T09:10:36.878Z,1006.19
2018-10-16T09:11:36.880Z,1006.20
2018-10-16T09:12:36.856Z,1006.22
2018-10-16T09:13:36.844Z,1006.25
2018-10-16T09:14:36.876Z,1006.18
2018-10-16T09:15:36.822Z,1006.19
2018-10-16T09:16:36.826Z,1006.23
2018-10-16T09:17:36.803Z,1006.21
2018-10-16T09:18:36.791Z,1006.21
2018-10-16T09:19:36.793Z,1006.19
2018-10-16T09:20:36.769Z,1006.27
2018-10-16T09:21:36.760Z,1006.28
2018-10-16T09:22:36.751Z,1006.27
2018-10-16T09:23:36.768Z,1006.26
2018-10-16T09:24:36.825Z,1006.32
2018-10-16T09:25:36.717Z,1006.34
2018-10-16T09:26:36.707Z,1006.40
2018-10-16T09:27:36.696Z,1006.42
2018-10-16T09:28:36.686Z,1006.41
2018-10-16T09:29:36.710Z,1006.45
2018-10-16T09:30:36.704Z,1006.33
2018-10-16T09:31:36.654Z,1006.40
2018-10-16T09:32:36.646Z,1006.41
2018-10-16T09:33:36.633Z,1006.42
2018-10-16T09:34:36.622Z,1006.35
2018-10-16T09:35:36.629Z,1006.33
2018-10-16T09:36:36.602Z,1006.33
2018-10-16T09:37:36.697Z,1006.30
2018-10-16T09:38:36.580Z,1006.36
2018-10-16T09:39:36.570Z,1006.38
2018-10-16T09:40:36.577Z,1006.38
2018-10-16T09:41:36.549Z,1006.41
2018-10-16T09:42:36.538Z,1006.45
2018-10-16T09:43:36.527Z,1006.39
2018-10-16T09:44:36.517Z,1006.40
2018-10-16T09:45:36.542Z,1006.41
2018-10-16T09:46:36.500Z,1006.32
2018-10-16T09:47:36.487Z,1006.40
2018-10-16T09:48:36.476Z,1006.44
2018-10-16T09:49:36.562Z,1006.38
2018-10-16T09:50:36.454Z,1006.42
2018-10-16T09:51:36.459Z,1006.41
2018-10-16T09:52:36.435Z,1006.45
2018-10-16T09:53:36.446Z,1006.45
2018-10-16T09:54:36.407Z,1006.43
2018-10-16T09:55:36.399Z,1006.46
2018-10-16T09:56:36.387Z,1006.38
2018-10-16T09:57:36.376Z,1006.45
2018-10-16T09:58:36.365Z,1006.45
2018-10-16T09:59:36.368Z,1006.44
2018-10-16T10:00:36.346Z,1006.44
2018-10-16T10:01:36.331Z,1006.44
2018-10-16T10:02:36.320Z,1006.47
2018-10-16T10:03:36.310Z,1006.45
2018-10-16T10:04:36.309Z,1006.46
2018-10-16T10:05:36.287Z,1006.45
2018-10-16T10:06:36.277Z,1006.45
2018-10-16T10:07:36.267Z,1006.39
2018-10-16T10:08:36.270Z,1006.43
2018-10-16T10:09:36.259Z,1006.43
2018-10-16T10:10:36.233Z,1006.42
2018-10-16T10:11:36.222Z,1006.39
2018-10-16T10:12:36.211Z,1006.39
2018-10-16T10:13:36.201Z,1006.37
2018-10-16T10:14:36.208Z,1006.39
2018-10-16T10:15:36.212Z,1006.42
2018-10-16T10:16:36.167Z,1006.44
2018-10-16T10:17:36.154Z,1006.49
2018-10-16T10:18:36.159Z,1006.50
2018-10-16T10:19:36.132Z,1006.52
2018-10-16T10:20:36.121Z,1006.45
2018-10-16T10:21:36.125Z,1006.45
2018-10-16T10:22:36.099Z,1006.48
2018-10-16T10:23:36.090Z,1006.45
2018-10-16T10:24:36.081Z,1006.39
2018-10-16T10:25:36.068Z,1006.36
2018-10-16T10:26:36.097Z,1006.44
2018-10-16T10:27:36.050Z,1006.44
2018-10-16T10:28:36.036Z,1006.44
2018-10-16T10:29:36.061Z,1006.47
2018-10-16T10:30:36.016Z,1006.49
2018-10-16T10:31:36.004Z,1006.51
2018-10-16T10:32:36.021Z,1006.47
2018-10-16T10:33:35.984Z,1006.46
2018-10-16T10:34:35.984Z,1006.48
2018-10-16T10:35:36.063Z,1006.56
2018-10-16T10:36:35.952Z,1006.51
2018-10-16T10:37:35.941Z,1006.53
2018-10-16T10:38:35.945Z,1006.54
2018-10-16T10:39:35.920Z,1006.41
2018-10-16T10:40:35.909Z,1006.40
2018-10-16T10:41:35.899Z,1006.44
2018-10-16T10:42:35.919Z,1006.45
2018-10-16T10:43:35.877Z,1006.42
2018-10-16T10:44:35.867Z,1006.36
2018-10-16T10:45:35.856Z,1006.28
2018-10-16T10:46:35.845Z,1006.36
2018-10-16T10:47:35.836Z,1006.36
2018-10-16T10:48:35.851Z,1006.37
2018-10-16T10:49:35.816Z,1006.35
2018-10-16T10:50:36.071Z,1006.36
2018-10-16T10:51:36.120Z,1006.36
2018-10-16T10:52:35.788Z,1006.39
2018-10-16T10:53:35.771Z,1006.34
2018-10-16T10:54:35.772Z,1006.47
2018-10-16T10:55:35.751Z,1006.44
2018-10-16T10:56:35.781Z,1006.40
2018-10-16T10:57:35.730Z,1006.43
2018-10-16T10:58:35.718Z,1006.36
2018-10-16T10:59:35.710Z,1006.39
2018-10-16T11:00:35.698Z,1006.36
2018-10-16T11:01:35.700Z,1006.35
2018-10-16T11:02:35.677Z,1006.34
2018-10-16T11:03:35.989Z,1006.36
2018-10-16T11:04:35.682Z,1006.31
2018-10-16T11:05:35.644Z,1006.39
2018-10-16T11:06:35.634Z,1006.40
2018-10-16T11:07:35.623Z,1006.42
2018-10-16T11:08:35.614Z,1006.38
2018-10-16T11:09:35.603Z,1006.38
2018-10-16T11:10:35.606Z,1006.42
2018-10-16T11:11:35.582Z,1006.43
2018-10-16T11:12:35.571Z,1006.40
2018-10-16T11:13:35.574Z,1006.35
2018-10-16T11:14:35.548Z,1006.47
2018-10-16T11:15:35.566Z,1006.52
2018-10-16T11:16:35.528Z,1006.54
2018-10-16T11:17:35.518Z,1006.47
2018-10-16T11:18:35.507Z,1006.47
2018-10-16T11:19:35.516Z,1006.47
2018-10-16T11:20:35.486Z,1006.53
2018-10-16T11:21:35.490Z,1006.49
2018-10-16T11:22:35.467Z,1006.53
2018-10-16T11:23:35.457Z,1006.50
2018-10-16T11:24:35.444Z,1006.59
2018-10-16T11:25:35.447Z,1006.53
2018-10-16T11:26:35.422Z,1006.52
2018-10-16T11:27:35.413Z,1006.54
2018-10-16T11:28:35.402Z,1006.54
2018-10-16T11:29:35.392Z,1006.53
2018-10-16T11:30:35.412Z,1006.45
2018-10-16T11:31:35.371Z,1006.50
2018-10-16T11:32:35.360Z,1006.48
2018-10-16T11:33:35.351Z,1006.47
2018-10-16T11:34:35.338Z,1006.47
2018-10-16T11:35:35.329Z,1006.48
2018-10-16T11:36:35.332Z,1006.39
2018-10-16T11:37:35.311Z,1006.41
2018-10-16T11:38:35.298Z,1006.36
2018-10-16T11:39:35.287Z,1006.35
2018-10-16T11:40:35.277Z,1006.36
2018-10-16T11:41:35.299Z,1006.35
2018-10-16T11:42:35.259Z,1006.36
2018-10-16T11:43:35.246Z,1006.39
2018-10-16T11:44:35.235Z,1006.43
2018-10-16T11:45:35.232Z,1006.41
2018-10-16T11:46:35.215Z,1006.37
2018-10-16T11:47:35.237Z,1006.40
2018-10-16T11:48:35.194Z,1006.47
2018-10-16T11:49:35.199Z,1006.44
2018-10-16T11:50:35.173Z,1006.43
2018-10-16T11:51:35.163Z,1006.45
2018-10-16T11:52:35.152Z,1006.42
2018-10-16T11:53:35.157Z,1006.33
2018-10-16T11:54:35.132Z,1006.30
2018-10-16T11:55:35.122Z,1006.29
2018-10-16T11:56:35.112Z,1006.30
2018-10-16T11:57:35.100Z,1006.30
2018-10-16T11:58:35.106Z,1006.24
2018-10-16T11:59:35.080Z,1006.27
2018-10-16T12:00:35.074Z,1006.24
2018-10-16T12:01:35.059Z,1006.25
2018-10-16T12:02:35.104Z,1006.23
2018-10-16T12:03:35.052Z,1006.21
2018-10-16T12:04:35.027Z,1006.22
2018-10-16T12:05:35.018Z,1006.24